Nome, AK (99762)

6:56 AM AKDT on September 27, 2016 (GMT -0800)
Nome | | Change Station
Active Advisory: High Surf Advisory

Elev 36 ft 64.51 °N, 165.45 °W | Updated 3 minutes ago

Overcast
Overcast
37 °F
Feels Like 30 °F
N
9
Wind Variable Wind from East

Today
High -- | Low -- °F
--% Chance of Precip.
Yesterday
High -- | Low -- °F
Precip. -- in
Pressure 30.03 in
Visibility 8.0 miles
Clouds Overcast 1800 ft
Windchill 30 °F
Dew Point 33 °F
Humidity 86%
Rainfall 0.00 in
Snow Depth Not available.
9:01 AM 8:41 PM
Waning Crescent, 11% visible
METAR PAOM 271453Z 08008KT 8SM OVC018 03/01 A3003 RMK SLP168 T00280006 58004 VIA AUTODIAL
Pressure 30.03 in
Visibility 8.0 miles
Clouds Overcast 1800 ft
Windchill 30 °F
Dew Point 33 °F
Humidity 86%
Rainfall 0.00 in
Snow Depth Not available.
9:01 AM 8:41 PM
Waning Crescent, 11% visible
METAR PAOM 271453Z 08008KT 8SM OVC018 03/01 A3003 RMK SLP168 T00280006 58004 VIA AUTODIAL

10-Day Weather Forecast

Almanac

Astronomy

Sep. 27, 2016 Rise Set
Actual Time
Civil Twilight
Nautical Twilight
Astronomical Twilight
Moon
Length of Visible Light
Length of Day
Tomorrow will be .
, % of the Moon is Illuminated

Today's Extremes

State Highs State Lows

Community

WunderPhotos

Upload Photos

1,942,094 photos uploaded!

WunderBlog® & News

Nearby

Air Quality

  Air Quality AQ Index Pollutant
Not available.

Snow Depth

Station Depth Elevation

Earthquake Activity

City Distance Mag. Time & Date
Minimum magnitude displayed is 2.5.

Coastal Water Temperatures

Place Temperature

Stations

Nearby Weather Stations

Station Location Temp. Windchill Dew Point Humidity Wind Precip. Elev Updated Type
                   

Watches & Warnings

High Surf Advisory
Issued: 5:27 AM AKDT Sep. 27, 2016 – National Weather Service

... High surf advisory remains in effect from 10 PM this evening
to 4 am akdt Thursday...

* location... from Nome east.

* Waves and surf... waves 6 feet breaking just offshore combined
with a storm surge of 2 to 4 feet will produce high surf
conditions.

* Timing... strong west winds will build the surf through the day
Wednesday then turn from the south.

* Impacts... the high surf and elevated sea levels could cause
localized beach erosion.

Precautionary/preparedness actions...

A high surf advisory means that localized beach erosion is
expected. Precautions should be taken to protect property by
moving it to higher ground or protected areas.